Time;durP1;ratioP1;P1;durP2;ratioP2;P2;SDS_P1;SDS_P2;PMS_P1;PMS_P2;Temp;Humidity;BMP_temperature;BMP_pressure;BME280_temperature;BME280_humidity;BME280_pressure;Samples;Min_cycle;Max_cycle;Signal;HPM_P1;HPM_P2
2022/07/03 00:01:51;;;;;;;4.68;2.72;;;17.50;99.90;;;;;;5064279;28;20479;-74
2022/07/03 00:04:19;;;;;;;4.10;2.80;;;17.40;99.90;;;;;;5067875;28;20051;-73
2022/07/03 00:06:45;;;;;;;6.38;2.60;;;17.40;99.90;;;;;;5067077;28;20044;-73
2022/07/03 00:09:12;;;;;;;10.05;3.08;;;17.30;99.90;;;;;;5065480;28;20033;-74
2022/07/03 00:11:37;;;;;;;5.78;2.58;;;17.30;99.90;;;;;;5066454;28;20380;-73
2022/07/03 00:14:03;;;;;;;5.07;1.90;;;17.30;99.90;;;;;;5068069;28;20071;-74
2022/07/03 00:16:29;;;;;;;2.92;1.73;;;17.20;99.90;;;;;;5066764;28;20079;-74
2022/07/03 00:18:55;;;;;;;6.18;2.55;;;17.10;99.90;;;;;;5066108;28;20463;-74
2022/07/03 00:21:27;;;;;;;6.78;2.28;;;17.00;99.90;;;;;;5066518;28;20036;-74
2022/07/03 00:24:03;;;;;;;21.08;2.88;;;17.00;99.90;;;;;;5064604;28;20339;-74
2022/07/03 00:26:33;;;;;;;6.35;2.70;;;17.00;99.90;;;;;;5068087;28;20128;-74
2022/07/03 00:29:01;;;;;;;4.75;2.13;;;16.90;99.90;;;;;;5066680;28;20037;-73
2022/07/03 00:31:30;;;;;;;3.17;2.30;;;16.90;99.90;;;;;;5065411;28;20059;-74
2022/07/03 00:33:59;;;;;;;3.72;2.50;;;16.90;99.90;;;;;;5067908;28;20037;-74
2022/07/03 00:36:28;;;;;;;4.43;2.30;;;16.90;99.90;;;;;;5068013;28;20529;-74
2022/07/03 00:38:54;;;;;;;2.45;2.25;;;16.90;99.90;;;;;;5064689;28;20090;-75
2022/07/03 00:41:28;;;;;;;5.60;3.05;;;16.70;99.90;;;;;;5067110;28;20601;-74
2022/07/03 00:43:53;;;;;;;7.90;2.90;;;16.60;99.90;;;;;;5065162;28;20445;-74
2022/07/03 00:46:22;;;;;;;3.40;2.17;;;16.60;99.90;;;;;;5063031;28;20052;-74
2022/07/03 00:48:49;;;;;;;4.10;2.20;;;16.70;99.90;;;;;;5065667;28;20083;-73
2022/07/03 00:51:26;;;;;;;5.38;2.70;;;16.60;99.90;;;;;;5067359;28;20063;-73
2022/07/03 00:53:54;;;;;;;3.40;2.35;;;16.60;99.90;;;;;;5046780;28;20044;-74
2022/07/03 00:56:28;;;;;;;2.58;2.38;;;16.50;99.90;;;;;;5046360;28;20083;-74
2022/07/03 00:59:00;;;;;;;4.18;2.92;;;16.40;99.90;;;;;;5057670;28;20072;-73
2022/07/03 01:01:39;;;;;;;4.88;3.67;;;16.30;99.90;;;;;;5065060;28;20037;-73
2022/07/03 01:04:20;;;;;;;9.23;4.22;;;16.20;99.90;;;;;;5067016;28;20044;-72
2022/07/03 01:07:02;;;;;;;5.25;3.42;;;16.10;99.90;;;;;;5066476;28;20035;-72
2022/07/03 01:10:02;;;;;;;4.32;2.95;;;16.10;99.90;;;;;;5064810;28;20047;-72
2022/07/03 01:12:54;;;;;;;8.23;4.50;;;16.20;99.90;;;;;;5065552;28;20059;-72
2022/07/03 01:15:56;;;;;;;7.22;3.40;;;16.30;99.90;;;;;;5064207;28;20048;-73
2022/07/03 01:18:48;;;;;;;4.97;3.13;;;16.30;99.90;;;;;;5054040;28;20048;-73
2022/07/03 01:21:33;;;;;;;6.55;4.13;;;16.30;99.90;;;;;;5066280;28;20459;-72
2022/07/03 01:24:36;;;;;;;3.15;2.85;;;16.30;99.90;;;;;;5065945;28;20229;-74
2022/07/03 01:27:07;;;;;;;5.97;2.78;;;16.30;99.90;;;;;;5065471;28;20132;-74
2022/07/03 01:29:56;;;;;;;3.22;2.75;;;16.30;99.90;;;;;;5062967;28;20024;-74
2022/07/03 01:32:26;;;;;;;5.07;3.00;;;16.10;99.90;;;;;;5045977;28;20053;-74
2022/07/03 01:34:53;;;;;;;7.40;3.55;;;16.10;99.90;;;;;;5079905;28;20221;-74
2022/07/03 01:37:24;;;;;;;4.70;3.00;;;16.10;99.90;;;;;;5066885;28;20075;-74
2022/07/03 01:39:52;;;;;;;4.35;2.92;;;16.10;99.90;;;;;;5063395;28;20036;-74
2022/07/03 01:42:19;;;;;;;4.28;2.80;;;15.90;99.90;;;;;;5066091;28;20995;-73
2022/07/03 01:44:48;;;;;;;6.10;3.38;;;15.90;99.90;;;;;;5063744;28;20399;-73
2022/07/03 01:47:15;;;;;;;7.72;3.33;;;15.80;99.90;;;;;;5065415;28;20053;-73
2022/07/03 01:49:42;;;;;;;5.15;3.78;;;15.90;99.90;;;;;;5064131;28;20071;-73
2022/07/03 01:52:10;;;;;;;6.13;2.83;;;15.70;99.90;;;;;;5063677;28;20158;-72
2022/07/03 01:54:39;;;;;;;4.13;3.38;;;15.70;99.90;;;;;;5063903;28;20044;-73
2022/07/03 01:57:08;;;;;;;6.53;3.05;;;15.80;99.90;;;;;;5065344;28;20054;-72
2022/07/03 01:59:35;;;;;;;7.55;3.42;;;15.70;99.90;;;;;;5065721;28;20036;-71
2022/07/03 02:02:15;;;;;;;9.25;3.10;;;15.70;99.90;;;;;;5063156;28;20044;-72
2022/07/03 02:05:07;;;;;;;4.43;3.63;;;15.70;99.90;;;;;;5064869;28;20048;-73
2022/07/03 02:08:22;;;;;;;6.28;3.28;;;15.80;99.90;;;;;;5064262;28;20041;-74
2022/07/03 02:11:15;;;;;;;6.90;3.38;;;15.90;99.90;;;;;;4987515;28;20050;-74
2022/07/03 02:13:52;;;;;;;8.85;3.55;;;15.90;99.90;;;;;;5018235;28;20088;-73
2022/07/03 02:16:22;;;;;;;7.10;3.55;;;15.80;99.90;;;;;;5064366;28;20534;-73
2022/07/03 02:18:57;;;;;;;3.53;2.53;;;15.80;99.90;;;;;;5064366;28;20040;-74
2022/07/03 02:21:29;;;;;;;5.03;3.67;;;15.80;99.90;;;;;;5063034;28;20035;-75
2022/07/03 02:24:19;;;;;;;6.07;2.70;;;15.70;99.90;;;;;;5063501;28;20052;-75
2022/07/03 02:26:52;;;;;;;5.30;3.60;;;15.70;99.90;;;;;;5062518;28;20171;-75
2022/07/03 02:29:24;;;;;;;5.20;3.67;;;15.60;99.90;;;;;;5063516;28;20063;-75
2022/07/03 02:31:58;;;;;;;9.13;4.75;;;15.60;99.90;;;;;;5079499;28;20044;-75
2022/07/03 02:34:25;;;;;;;11.52;4.22;;;15.60;99.90;;;;;;5063974;28;20033;-75
2022/07/03 02:37:06;;;;;;;7.10;3.53;;;15.50;99.90;;;;;;5063267;28;20032;-74
2022/07/03 02:40:12;;;;;;;5.55;4.15;;;15.50;99.90;;;;;;5064325;28;20060;-74
2022/07/03 02:43:16;;;;;;;5.13;3.22;;;15.50;99.90;;;;;;5049249;28;20448;-74
2022/07/03 02:46:48;;;;;;;6.80;4.15;;;15.40;99.90;;;;;;5048402;28;20070;-74
2022/07/03 02:48:54;;;;;;;5.32;3.40;;;15.40;99.90;;;;;;5064481;28;20049;-74
2022/07/03 02:51:23;;;;;;;4.90;3.97;;;15.40;99.90;;;;;;5065817;28;20075;-74
2022/07/03 02:54:04;;;;;;;8.57;4.38;;;15.30;99.90;;;;;;5063473;28;20453;-74
2022/07/03 02:56:56;;;;;;;7.18;3.90;;;15.30;99.90;;;;;;5062877;28;20126;-74
2022/07/03 02:59:41;;;;;;;6.35;4.05;;;15.30;99.90;;;;;;5054937;28;20414;-74
2022/07/03 03:02:16;;;;;;;4.35;3.85;;;15.20;99.90;;;;;;5062877;28;20473;-74
2022/07/03 03:04:48;;;;;;;7.55;4.72;;;15.10;99.90;;;;;;5064797;28;20036;-74
2022/07/03 03:07:17;;;;;;;5.32;4.05;;;15.30;99.90;;;;;;5062392;28;20376;-73
2022/07/03 03:09:45;;;;;;;6.30;4.55;;;15.20;99.90;;;;;;5064294;28;20416;-74
2022/07/03 03:12:12;;;;;;;7.95;4.10;;;15.30;99.90;;;;;;5063877;28;20040;-74
2022/07/03 03:14:43;;;;;;;5.75;4.00;;;15.30;99.90;;;;;;5046827;28;20048;-74
2022/07/03 03:17:18;;;;;;;5.03;3.83;;;15.20;99.90;;;;;;5063945;28;20037;-75
2022/07/03 03:19:48;;;;;;;6.35;3.42;;;15.20;99.90;;;;;;5064753;28;20055;-74
2022/07/03 03:22:27;;;;;;;6.78;4.78;;;15.20;99.90;;;;;;5069987;28;20044;-75
2022/07/03 03:24:54;;;;;;;6.97;4.90;;;15.10;99.90;;;;;;5066142;28;20502;-75
2022/07/03 03:27:21;;;;;;;8.95;4.82;;;15.20;99.90;;;;;;5064743;28;20368;-75
2022/07/03 03:29:47;;;;;;;8.90;4.05;;;15.30;99.90;;;;;;5083376;28;20087;-75
2022/07/03 03:32:13;;;;;;;4.85;4.10;;;15.30;99.90;;;;;;5067243;28;20059;-75
2022/07/03 03:34:45;;;;;;;8.45;4.88;;;15.10;99.90;;;;;;5068064;28;20036;-75
2022/07/03 03:37:11;;;;;;;6.07;4.47;;;14.90;99.90;;;;;;5067352;28;20105;-75
2022/07/03 03:39:37;;;;;;;5.28;4.53;;;14.80;99.90;;;;;;5065324;28;20028;-75
2022/07/03 03:42:03;;;;;;;8.00;5.22;;;14.90;99.90;;;;;;5066809;28;20048;-75
2022/07/03 03:44:29;;;;;;;6.88;4.63;;;15.00;99.90;;;;;;5067635;28;20047;-75
2022/07/03 03:46:56;;;;;;;6.45;5.22;;;15.10;99.90;;;;;;5051010;28;20099;-73
2022/07/03 03:49:22;;;;;;;6.15;4.50;;;15.10;99.90;;;;;;5059291;28;20048;-75
2022/07/03 03:51:48;;;;;;;8.02;4.25;;;15.20;99.90;;;;;;5067240;28;20449;-73
2022/07/03 03:54:14;;;;;;;9.73;4.38;;;15.20;99.90;;;;;;5064393;28;20044;-73
2022/07/03 03:56:40;;;;;;;5.25;4.15;;;15.30;99.90;;;;;;5066462;28;20091;-75
2022/07/03 03:59:05;;;;;;;8.65;4.43;;;15.30;99.90;;;;;;5065865;28;20097;-73
2022/07/03 04:01:31;;;;;;;7.40;4.32;;;15.30;99.90;;;;;;5066746;28;20457;-73
2022/07/03 04:03:59;;;;;;;5.45;4.70;;;15.30;99.90;;;;;;5066421;28;20550;-73
2022/07/03 04:06:25;;;;;;;5.03;4.63;;;15.30;99.90;;;;;;5066820;28;20052;-73
2022/07/03 04:08:51;;;;;;;6.60;5.65;;;15.30;99.90;;;;;;5062934;28;20048;-73
2022/07/03 04:11:17;;;;;;;5.15;4.65;;;15.30;99.90;;;;;;5068810;28;20044;-74
2022/07/03 04:13:43;;;;;;;9.73;5.00;;;15.40;99.90;;;;;;5068282;28;20406;-74
2022/07/03 04:16:08;;;;;;;6.22;5.40;;;15.40;99.90;;;;;;5065720;28;20131;-74
2022/07/03 04:18:34;;;;;;;9.60;4.70;;;15.50;99.90;;;;;;5068433;28;20037;-75
2022/07/03 04:21:00;;;;;;;4.80;3.50;;;15.50;99.90;;;;;;5064284;28;20040;-73
2022/07/03 04:23:26;;;;;;;7.80;4.88;;;15.60;99.90;;;;;;5064259;28;20048;-74
2022/07/03 04:25:51;;;;;;;6.05;4.22;;;15.70;99.90;;;;;;5066939;28;20041;-74
2022/07/03 04:28:17;;;;;;;4.72;3.78;;;15.80;99.90;;;;;;5065284;28;20482;-74
2022/07/03 04:30:43;;;;;;;8.00;4.90;;;15.80;99.90;;;;;;5064275;28;20036;-74
2022/07/03 04:33:08;;;;;;;4.40;4.00;;;16.10;99.90;;;;;;5062177;28;20059;-75
2022/07/03 04:35:34;;;;;;;4.15;3.42;;;16.70;99.90;;;;;;5065690;28;20040;-74
2022/07/03 04:38:00;;;;;;;24.05;3.78;;;16.70;99.90;;;;;;5065714;28;20029;-75
2022/07/03 04:40:25;;;;;;;6.00;3.33;;;16.50;99.90;;;;;;5067712;28;20044;-74
2022/07/03 04:42:51;;;;;;;3.20;2.40;;;16.40;99.90;;;;;;5064714;28;20489;-74
2022/07/03 04:45:17;;;;;;;5.80;4.05;;;16.40;99.90;;;;;;5065138;28;20122;-75
2022/07/03 04:47:42;;;;;;;3.92;3.03;;;16.50;99.90;;;;;;5082404;28;20070;-74
2022/07/03 04:50:08;;;;;;;3.35;2.70;;;16.90;99.90;;;;;;5066110;28;20555;-75
2022/07/03 04:52:34;;;;;;;4.13;2.15;;;17.50;99.90;;;;;;5066919;28;20619;-74
2022/07/03 04:54:59;;;;;;;4.15;3.03;;;17.30;99.90;;;;;;5065599;28;20388;-74
2022/07/03 04:57:25;;;;;;;4.93;2.80;;;17.20;99.90;;;;;;5064578;28;20044;-76
2022/07/03 04:59:50;;;;;;;5.13;2.05;;;17.10;99.90;;;;;;5066161;28;20044;-76
2022/07/03 05:02:16;;;;;;;5.50;2.38;;;17.10;99.90;;;;;;5066788;28;20082;-76
2022/07/03 05:04:42;;;;;;;7.68;2.45;;;17.20;99.90;;;;;;5064048;28;20128;-76
2022/07/03 05:07:08;;;;;;;3.95;2.20;;;17.20;99.90;;;;;;5065202;28;20044;-79
2022/07/03 05:09:33;;;;;;;5.97;2.55;;;17.30;99.90;;;;;;5064258;28;20436;-77
2022/07/03 05:11:59;;;;;;;3.10;2.65;;;17.30;99.90;;;;;;5064431;28;20388;-74
2022/07/03 05:14:24;;;;;;;5.70;2.33;;;17.20;99.90;;;;;;5066815;28;20288;-76
2022/07/03 05:16:50;;;;;;;2.80;2.33;;;17.20;99.90;;;;;;5064590;28;20051;-75
2022/07/03 05:19:16;;;;;;;3.50;2.50;;;17.20;99.90;;;;;;5066727;28;20214;-76
2022/07/03 05:21:41;;;;;;;5.72;2.50;;;17.30;99.90;;;;;;5064908;28;20456;-76
2022/07/03 05:24:07;;;;;;;7.03;2.83;;;17.30;99.90;;;;;;5057328;28;20384;-76
2022/07/03 05:26:33;;;;;;;4.90;3.35;;;17.30;99.90;;;;;;5061245;28;20060;-76
2022/07/03 05:28:58;;;;;;;5.20;3.35;;;17.30;99.90;;;;;;5064249;28;20040;-77
2022/07/03 05:31:24;;;;;;;6.38;2.88;;;17.30;99.90;;;;;;5063792;28;20040;-76
2022/07/03 05:33:50;;;;;;;7.22;3.55;;;17.30;99.90;;;;;;5065671;28;20591;-77
2022/07/03 05:36:15;;;;;;;4.82;2.90;;;17.40;99.90;;;;;;5062861;28;20395;-76
2022/07/03 05:41:25;;;;;;;5.75;2.78;;;17.50;99.90;;;;;;5068594;28;20052;-75
2022/07/03 05:43:51;;;;;;;6.57;2.40;;;17.40;99.90;;;;;;5066223;28;20055;-76
2022/07/03 05:46:16;;;;;;;3.38;2.20;;;17.40;99.90;;;;;;5063496;28;20056;-76
2022/07/03 05:48:42;;;;;;;3.92;2.47;;;17.50;99.90;;;;;;5064989;28;20056;-74
2022/07/03 05:51:07;;;;;;;4.45;2.03;;;17.50;99.90;;;;;;5065414;28;20059;-75
2022/07/03 05:53:33;;;;;;;3.33;2.60;;;17.50;99.90;;;;;;5064191;28;20486;-75
2022/07/03 05:55:59;;;;;;;4.18;2.55;;;17.60;99.90;;;;;;5060277;28;20128;-75
2022/07/03 05:58:24;;;;;;;3.72;2.10;;;17.60;99.90;;;;;;5064014;28;20055;-76
2022/07/03 06:00:50;;;;;;;7.55;4.15;;;17.60;99.90;;;;;;5063948;28;20103;-74
2022/07/03 06:03:16;;;;;;;7.65;2.83;;;17.80;99.90;;;;;;5063338;28;20059;-75
2022/07/03 06:05:41;;;;;;;3.58;3.20;;;17.80;99.90;;;;;;5063605;28;20076;-75
2022/07/03 06:08:07;;;;;;;6.25;2.88;;;18.00;99.90;;;;;;5064009;28;20121;-74
2022/07/03 06:10:37;;;;;;;10.63;4.13;;;18.10;99.90;;;;;;5064665;28;20178;-75
2022/07/03 06:13:11;;;;;;;4.50;2.47;;;18.10;99.90;;;;;;5064170;28;20457;-73
2022/07/03 06:15:38;;;;;;;2.85;1.90;;;18.00;99.90;;;;;;5064738;28;20055;-75
2022/07/03 06:18:04;;;;;;;2.55;2.00;;;17.90;99.90;;;;;;5060109;28;20033;-74
2022/07/03 06:20:30;;;;;;;5.18;2.22;;;17.90;99.90;;;;;;5064099;28;20485;-74
2022/07/03 06:22:56;;;;;;;2.53;1.85;;;17.90;99.90;;;;;;5063581;28;20090;-75
2022/07/03 06:25:21;;;;;;;4.53;2.38;;;17.80;99.90;;;;;;5064856;28;20407;-76
2022/07/03 06:27:47;;;;;;;4.65;2.25;;;17.80;99.90;;;;;;5064508;28;20424;-74
2022/07/03 06:30:13;;;;;;;5.45;3.22;;;17.90;99.90;;;;;;5065066;28;20116;-75
2022/07/03 06:32:38;;;;;;;4.18;2.08;;;18.10;99.90;;;;;;5061497;28;20072;-74
2022/07/03 06:35:05;;;;;;;4.05;2.15;;;18.20;99.90;;;;;;5062084;28;20055;-75
2022/07/03 06:37:31;;;;;;;4.28;1.63;;;18.40;99.90;;;;;;5061119;28;20467;-82
2022/07/03 06:39:56;;;;;;;4.25;1.80;;;18.40;99.90;;;;;;5065518;28;20039;-75
2022/07/03 06:42:22;;;;;;;6.75;1.98;;;18.50;99.90;;;;;;5081789;28;20040;-76
2022/07/03 06:44:48;;;;;;;3.28;1.55;;;18.70;99.90;;;;;;5054379;28;20080;-75
2022/07/03 06:47:13;;;;;;;3.03;1.42;;;18.80;99.90;;;;;;5063849;28;20041;-77
2022/07/03 06:49:39;;;;;;;4.40;1.45;;;18.90;99.90;;;;;;5085036;28;20102;-74
2022/07/03 06:52:05;;;;;;;3.35;1.58;;;18.90;99.90;;;;;;5065981;28;20041;-75
2022/07/03 06:54:31;;;;;;;4.53;1.48;;;19.00;99.90;;;;;;5066362;28;20052;-75
2022/07/03 06:56:56;;;;;;;1.70;1.13;;;19.00;99.90;;;;;;5073415;28;20033;-77
2022/07/03 06:59:22;;;;;;;5.00;1.48;;;18.90;99.90;;;;;;5082982;28;20037;-76
2022/07/03 07:01:48;;;;;;;2.67;1.10;;;19.30;99.90;;;;;;5073438;28;20044;-75
2022/07/03 07:04:13;;;;;;;3.83;1.33;;;19.60;99.90;;;;;;5073831;28;20178;-75
2022/07/03 07:06:39;;;;;;;2.70;1.13;;;20.10;99.90;;;;;;5071768;28;20063;-77
2022/07/03 07:09:05;;;;;;;2.80;0.70;;;21.50;99.90;;;;;;5073591;28;20029;-77
2022/07/03 07:11:30;;;;;;;1.75;0.85;;;21.30;99.90;;;;;;5070954;28;20678;-74
2022/07/03 07:13:56;;;;;;;3.05;0.70;;;20.50;99.90;;;;;;5078031;28;20298;-75
2022/07/03 07:16:22;;;;;;;2.28;0.80;;;20.50;99.90;;;;;;5076136;28;20079;-75
2022/07/03 07:18:47;;;;;;;3.03;1.70;;;22.10;99.90;;;;;;5077871;28;20039;-75
2022/07/03 07:21:13;;;;;;;4.65;1.20;;;22.50;99.90;;;;;;5070966;28;20118;-75
2022/07/03 07:23:39;;;;;;;2.45;0.68;;;22.90;99.90;;;;;;5065962;28;20052;-74
2022/07/03 07:26:06;;;;;;;2.53;1.13;;;22.70;99.90;;;;;;5069131;28;20071;-75
2022/07/03 07:28:33;;;;;;;3.42;0.80;;;22.40;99.90;;;;;;5065039;28;20090;-75
2022/07/03 07:30:59;;;;;;;3.72;0.50;;;21.70;99.90;;;;;;5067231;28;20090;-75
2022/07/03 07:33:24;;;;;;;3.63;1.00;;;23.00;99.90;;;;;;5066343;28;20407;-75
2022/07/03 07:35:51;;;;;;;0.68;0.50;;;23.80;99.90;;;;;;5062583;28;20067;-75
2022/07/03 07:38:17;;;;;;;18.40;1.70;;;24.00;99.90;;;;;;5052264;28;20108;-74
2022/07/03 07:40:44;;;;;;;2.28;0.60;;;24.80;99.90;;;;;;5068075;28;20041;-75
2022/07/03 07:43:10;;;;;;;1.08;0.57;;;24.80;99.90;;;;;;5069853;28;20097;-74
2022/07/03 07:45:35;;;;;;;5.40;1.27;;;25.00;99.90;;;;;;5066331;28;20048;-74
2022/07/03 07:48:01;;;;;;;2.42;0.73;;;25.20;99.90;;;;;;5067488;28;20057;-74
2022/07/03 07:50:27;;;;;;;3.72;0.88;;;25.50;99.90;;;;;;5079428;28;20129;-75
2022/07/03 07:52:53;;;;;;;2.53;0.80;;;24.90;99.90;;;;;;5070375;28;20426;-75
2022/07/03 07:55:20;;;;;;;2.10;0.68;;;23.90;99.90;;;;;;5067747;28;20086;-75
2022/07/03 07:57:46;;;;;;;2.22;0.68;;;23.30;99.90;;;;;;5075886;28;20043;-75
2022/07/03 08:00:14;;;;;;;2.50;0.63;;;22.50;99.90;;;;;;5068704;28;20410;-74
2022/07/03 08:05:38;;;;;;;1.67;0.50;;;22.40;99.90;;;;;;5069839;28;20044;-74
2022/07/03 08:08:08;;;;;;;3.45;0.68;;;22.30;99.90;;;;;;5064709;28;20079;-75
2022/07/03 08:10:44;;;;;;;1.70;0.63;;;22.20;99.90;;;;;;5066789;28;20053;-78
2022/07/03 08:13:11;;;;;;;4.63;0.90;;;22.10;99.90;;;;;;5072365;28;20105;-77
2022/07/03 08:15:37;;;;;;;6.60;1.77;;;22.30;99.90;;;;;;5075959;28;20094;-74
2022/07/03 08:18:04;;;;;;;3.05;0.60;;;22.50;99.90;;;;;;5075641;28;20071;-76
2022/07/03 08:20:30;;;;;;;1.77;0.60;;;22.40;99.90;;;;;;5070480;28;20044;-75
2022/07/03 08:22:56;;;;;;;1.70;0.40;;;22.60;99.90;;;;;;5076976;28;20093;-76
2022/07/03 08:25:22;;;;;;;3.20;0.60;;;22.50;99.90;;;;;;5068201;28;20057;-79
2022/07/03 08:27:47;;;;;;;7.40;0.70;;;22.70;99.90;;;;;;5076502;28;20079;-79
2022/07/03 08:30:15;;;;;;;0.85;0.40;;;22.70;99.90;;;;;;5064634;28;20467;-77
2022/07/03 08:32:41;;;;;;;2.90;0.70;;;22.80;99.90;;;;;;5053045;28;20491;-74
2022/07/03 08:35:07;;;;;;;4.28;0.57;;;22.90;99.90;;;;;;5056764;28;20075;-76
2022/07/03 08:37:34;;;;;;;1.20;0.50;;;22.90;99.90;;;;;;5059388;28;20040;-76
2022/07/03 08:40:01;;;;;;;4.45;1.10;;;22.80;99.90;;;;;;5082847;28;20033;-76
2022/07/03 08:42:28;;;;;;;1.75;0.68;;;23.00;99.90;;;;;;5067387;28;20513;-75
2022/07/03 08:44:55;;;;;;;0.60;0.60;;;22.90;99.90;;;;;;5062984;28;20040;-75
2022/07/03 08:47:22;;;;;;;2.50;0.55;;;22.80;99.90;;;;;;5066759;28;20064;-75
2022/07/03 08:49:49;;;;;;;1.15;0.57;;;22.90;99.90;;;;;;5067801;28;20044;-74
2022/07/03 08:52:15;;;;;;;2.70;0.50;;;22.90;99.90;;;;;;5060581;28;20098;-76
2022/07/03 08:54:40;;;;;;;2.60;0.85;;;22.90;99.90;;;;;;5065610;28;20041;-75
2022/07/03 08:57:07;;;;;;;1.40;0.75;;;22.90;99.90;;;;;;5048539;28;20071;-76
2022/07/03 08:59:36;;;;;;;3.28;1.45;;;23.00;99.90;;;;;;5065265;28;20064;-75
2022/07/03 09:02:07;;;;;;;1.98;0.90;;;23.00;99.90;;;;;;5061818;28;20080;-76
2022/07/03 09:04:33;;;;;;;1.80;0.60;;;23.00;99.90;;;;;;5067064;28;20504;-75
2022/07/03 09:06:59;;;;;;;2.60;0.57;;;23.00;99.90;;;;;;5058650;28;20045;-75
2022/07/03 09:09:25;;;;;;;3.20;0.88;;;23.10;99.90;;;;;;5064704;28;20059;-75
2022/07/03 09:11:51;;;;;;;2.25;0.60;;;23.50;99.90;;;;;;5065404;28;20056;-74
2022/07/03 09:14:17;;;;;;;1.83;0.82;;;23.50;99.90;;;;;;5065744;28;20041;-75
2022/07/03 09:16:43;;;;;;;2.22;0.85;;;23.10;99.90;;;;;;5063375;28;20207;-76
2022/07/03 09:19:09;;;;;;;2.83;0.63;;;23.40;99.90;;;;;;5066200;28;20048;-75
2022/07/03 09:21:39;;;;;;;3.30;0.90;;;22.80;99.90;;;;;;5066923;28;20127;-75
2022/07/03 09:24:07;;;;;;;1.98;0.60;;;23.00;99.90;;;;;;5062308;28;20084;-76
2022/07/03 09:26:33;;;;;;;1.88;0.63;;;23.00;99.90;;;;;;5062448;28;20043;-77
2022/07/03 09:28:59;;;;;;;3.08;0.60;;;22.70;99.90;;;;;;5057732;28;20091;-76
2022/07/03 09:31:27;;;;;;;5.60;1.10;;;22.60;99.90;;;;;;5063335;28;20090;-83
2022/07/03 09:34:03;;;;;;;3.67;0.60;;;22.80;99.90;;;;;;5066270;28;20380;-77
2022/07/03 09:36:44;;;;;;;1.33;0.60;;;22.90;99.90;;;;;;5055680;28;20089;-77
2022/07/03 09:39:24;;;;;;;2.05;0.85;;;22.90;99.90;;;;;;5061075;28;20041;-77
2022/07/03 09:41:52;;;;;;;2.10;0.60;;;22.50;99.90;;;;;;5058642;28;20588;-78
2022/07/03 09:44:33;;;;;;;4.65;1.25;;;22.90;99.90;;;;;;5062496;28;20052;-78
2022/07/03 09:47:11;;;;;;;4.13;0.90;;;22.40;99.90;;;;;;5063242;28;20048;-78
2022/07/03 09:50:00;;;;;;;4.95;2.00;;;22.40;99.90;;;;;;5061876;28;20049;-77
2022/07/03 09:52:43;;;;;;;2.03;1.13;;;22.70;99.90;;;;;;5055154;28;20084;-79
2022/07/03 09:55:09;;;;;;;5.40;1.00;;;22.60;99.90;;;;;;5057742;28;20055;-77
2022/07/03 09:57:38;;;;;;;4.07;0.90;;;23.00;99.90;;;;;;5063780;28;20552;-77
2022/07/03 10:00:11;;;;;;;2.15;0.82;;;23.30;99.90;;;;;;5065389;28;20041;-77
2022/07/03 10:02:51;;;;;;;4.20;0.70;;;23.20;99.90;;;;;;5062702;28;20518;-77
2022/07/03 10:05:17;;;;;;;4.53;1.10;;;22.80;99.90;;;;;;5061835;28;20060;-78
2022/07/03 10:08:10;;;;;;;4.22;0.70;;;22.50;99.90;;;;;;5062051;28;20127;-77
2022/07/03 10:10:45;;;;;;;4.70;1.95;;;22.20;99.90;;;;;;5063120;28;20405;-77
2022/07/03 10:13:11;;;;;;;4.97;1.50;;;22.40;99.90;;;;;;5061349;28;20123;-76
2022/07/03 10:15:38;;;;;;;4.03;0.90;;;22.10;99.90;;;;;;5064165;28;20076;-77
2022/07/03 10:18:06;;;;;;;3.35;1.30;;;22.10;99.90;;;;;;5060634;28;20040;-76
2022/07/03 10:20:46;;;;;;;5.82;1.70;;;22.30;99.90;;;;;;5064922;28;20335;-77
2022/07/03 10:23:11;;;;;;;5.97;1.48;;;22.70;99.90;;;;;;5064045;28;20041;-77
2022/07/03 10:25:44;;;;;;;8.75;1.77;;;22.10;99.90;;;;;;5063192;28;20044;-75
2022/07/03 10:28:14;;;;;;;4.15;1.10;;;21.90;99.90;;;;;;5063235;28;20052;-75
2022/07/03 10:30:43;;;;;;;2.22;1.00;;;22.20;99.90;;;;;;5064787;28;20128;-76
2022/07/03 10:33:09;;;;;;;7.20;1.08;;;21.90;99.90;;;;;;5062871;28;20049;-76
2022/07/03 10:35:38;;;;;;;3.60;0.95;;;22.40;99.90;;;;;;5059352;28;20043;-76
2022/07/03 10:38:14;;;;;;;4.43;1.20;;;22.70;99.90;;;;;;5062141;28;20048;-76
2022/07/03 10:46:28;;;;;;;7.45;1.95;;;22.60;99.90;;;;;;5058678;28;20136;-77
2022/07/03 10:49:07;;;;;;;4.72;1.40;;;21.90;99.90;;;;;;5064143;28;20057;-77
2022/07/03 10:51:46;;;;;;;5.63;1.20;;;22.10;99.90;;;;;;5063821;28;20048;-75
2022/07/03 10:54:15;;;;;;;3.95;1.25;;;22.50;99.90;;;;;;5065445;28;20051;-77
2022/07/03 10:57:02;;;;;;;2.72;0.80;;;22.90;99.90;;;;;;5064393;28;20048;-76
2022/07/03 10:59:37;;;;;;;3.40;0.80;;;22.90;99.90;;;;;;5063361;28;20052;-75
2022/07/03 11:02:27;;;;;;;3.10;0.50;;;23.20;99.90;;;;;;5045437;28;20067;-77
2022/07/03 11:05:01;;;;;;;5.30;1.02;;;23.00;99.90;;;;;;5055967;28;20049;-77
2022/07/03 11:07:27;;;;;;;6.75;1.50;;;22.70;99.90;;;;;;5063227;28;20507;-77
2022/07/03 11:10:09;;;;;;;8.50;1.10;;;22.40;99.90;;;;;;5062961;28;20047;-76
2022/07/03 11:12:54;;;;;;;5.00;1.33;;;21.80;99.90;;;;;;5052581;28;20101;-76
2022/07/03 11:15:40;;;;;;;4.18;1.05;;;22.00;99.90;;;;;;5064859;28;20101;-77
2022/07/03 11:18:09;;;;;;;10.25;2.25;;;21.90;99.90;;;;;;5055387;28;20051;-77
2022/07/03 11:20:41;;;;;;;6.10;1.67;;;21.90;99.90;;;;;;5043231;28;20113;-77
2022/07/03 11:23:10;;;;;;;6.75;1.85;;;21.90;99.90;;;;;;5061564;28;20049;-77
2022/07/03 11:25:46;;;;;;;6.88;2.20;;;21.70;99.90;;;;;;5059181;28;20041;-77
2022/07/03 11:28:30;;;;;;;4.63;1.60;;;21.70;99.90;;;;;;5051744;28;20041;-76
2022/07/03 11:33:42;;;;;;;3.95;1.05;;;21.60;99.90;;;;;;5064091;28;20449;-78
2022/07/03 11:36:14;;;;;;;6.43;1.80;;;21.80;99.90;;;;;;5060639;28;20130;-78
2022/07/03 11:38:40;;;;;;;6.28;1.80;;;21.90;99.90;;;;;;5077818;28;20044;-77
2022/07/03 11:41:08;;;;;;;9.15;2.30;;;22.10;99.90;;;;;;5043055;28;20059;-82
2022/07/03 11:43:34;;;;;;;5.80;1.33;;;22.30;99.90;;;;;;5068141;28;20092;-77
2022/07/03 11:46:00;;;;;;;3.97;1.20;;;22.60;99.90;;;;;;5063911;28;20052;-77
2022/07/03 11:48:27;;;;;;;8.48;1.40;;;22.50;99.90;;;;;;5065453;28;20625;-80
2022/07/03 11:51:00;;;;;;;4.57;1.02;;;22.30;99.90;;;;;;5066464;28;20041;-80
2022/07/03 11:53:29;;;;;;;4.43;1.35;;;22.20;99.90;;;;;;5067335;28;20040;-79
2022/07/03 11:55:58;;;;;;;6.00;1.15;;;22.10;99.90;;;;;;5067314;28;20040;-77
2022/07/03 11:58:25;;;;;;;3.03;1.15;;;21.80;99.90;;;;;;5065767;28;20052;-79
2022/07/03 12:00:52;;;;;;;4.18;0.73;;;21.60;99.90;;;;;;5065710;28;20041;-79
2022/07/03 12:03:26;;;;;;;3.70;0.95;;;21.90;99.90;;;;;;5068874;28;20044;-78
2022/07/03 12:06:01;;;;;;;2.15;0.77;;;22.20;99.90;;;;;;5064861;28;20055;-79
2022/07/03 12:08:32;;;;;;;5.82;1.65;;;22.50;99.90;;;;;;5065088;28;20051;-80
2022/07/03 12:11:02;;;;;;;3.65;0.73;;;22.70;99.90;;;;;;5066440;28;20098;-78
2022/07/03 12:13:30;;;;;;;3.58;0.70;;;22.70;99.90;;;;;;5067948;28;20047;-78
2022/07/03 12:16:04;;;;;;;4.90;0.70;;;22.40;99.90;;;;;;5067593;28;20422;-78
2022/07/03 12:18:47;;;;;;;2.22;0.90;;;22.70;99.90;;;;;;5064947;28;20040;-79
2022/07/03 12:21:14;;;;;;;4.65;0.75;;;23.10;99.90;;;;;;5065759;28;20127;-77
2022/07/03 12:23:50;;;;;;;4.72;0.88;;;23.20;99.90;;;;;;5066537;28;20044;-79
2022/07/03 12:26:36;;;;;;;2.47;1.00;;;23.50;99.90;;;;;;5065886;28;20067;-79
2022/07/03 12:29:13;;;;;;;1.17;0.50;;;23.40;99.90;;;;;;5047154;28;20063;-79
2022/07/03 12:31:44;;;;;;;4.35;0.90;;;23.40;99.90;;;;;;5047167;28;20081;-79
2022/07/03 12:34:11;;;;;;;4.15;0.60;;;23.80;99.90;;;;;;5055740;28;20043;-79
2022/07/03 12:36:37;;;;;;;2.28;0.88;;;23.60;99.90;;;;;;5065618;28;20547;-82
2022/07/03 12:39:03;;;;;;;4.07;0.60;;;23.50;99.90;;;;;;5066830;28;20410;-77
2022/07/03 12:41:29;;;;;;;3.55;0.73;;;23.70;99.90;;;;;;5066090;28;20060;-83
2022/07/03 12:43:57;;;;;;;0.88;0.45;;;23.10;99.90;;;;;;5069967;28;20068;-82
2022/07/03 12:46:24;;;;;;;2.08;0.68;;;23.00;99.90;;;;;;5072374;28;20098;-77
2022/07/03 12:48:53;;;;;;;1.63;0.70;;;22.80;99.90;;;;;;5076297;28;20055;-80
2022/07/03 12:51:58;;;;;;;3.47;0.90;;;22.80;99.90;;;;;;5054165;28;20040;-83
2022/07/03 12:54:35;;;;;;;1.13;0.70;;;22.70;99.90;;;;;;5075176;28;20063;-85
2022/07/03 13:00:05;;;;;;;3.88;0.90;;;22.60;99.90;;;;;;5075705;28;20059;-82
2022/07/03 13:02:32;;;;;;;1.55;1.02;;;22.70;99.90;;;;;;5073865;28;20051;-83
2022/07/03 13:05:12;;;;;;;2.42;0.40;;;22.50;99.90;;;;;;5076055;28;20048;-84
2022/07/03 13:07:40;;;;;;;1.90;0.70;;;22.30;99.90;;;;;;5071327;28;20560;-82
2022/07/03 13:10:06;;;;;;;1.75;1.17;;;22.30;99.90;;;;;;5070617;28;20037;-83
2022/07/03 13:12:32;;;;;;;2.08;1.05;;;22.10;99.90;;;;;;5068790;28;20044;-82
2022/07/03 13:15:02;;;;;;;1.35;0.40;;;21.90;99.90;;;;;;5066418;28;20131;-82
2022/07/03 13:17:50;;;;;;;3.40;0.82;;;21.90;99.90;;;;;;5056665;28;20044;-82
2022/07/03 13:20:16;;;;;;;0.85;0.47;;;21.30;99.90;;;;;;5065599;28;20102;-86